Time;durP1;ratioP1;P1;durP2;ratioP2;P2;SDS_P1;SDS_P2;PMS_P1;PMS_P2;Temp;Humidity;BMP_temperature;BMP_pressure;BME280_temperature;BME280_humidity;BME280_pressure;Samples;Min_cycle;Max_cycle;Signal;HPM_P1;HPM_P2
2021/01/18 00:01:23;;;;;;;7.43;6.05;;;2.10;99.90;;;;;;5053393;28;20200;-79
2021/01/18 00:03:50;;;;;;;14.48;8.45;;;2.10;99.90;;;;;;5053200;28;20223;-79
2021/01/18 00:06:18;;;;;;;23.52;16.13;;;2.10;99.90;;;;;;5053008;28;21059;-79
2021/01/18 00:08:45;;;;;;;11.10;8.60;;;2.10;99.90;;;;;;5052760;28;20232;-79
2021/01/18 00:11:12;;;;;;;7.15;5.40;;;2.10;99.90;;;;;;5053572;28;20653;-79
2021/01/18 00:13:39;;;;;;;6.00;5.40;;;2.10;99.90;;;;;;5053930;28;20286;-79
2021/01/18 00:16:06;;;;;;;10.30;5.55;;;2.10;99.90;;;;;;5053405;28;20226;-79
2021/01/18 00:18:33;;;;;;;8.43;5.25;;;2.10;99.90;;;;;;5053127;28;20204;-79
2021/01/18 00:21:00;;;;;;;6.45;5.85;;;2.10;99.90;;;;;;5053396;28;20235;-79
2021/01/18 00:23:27;;;;;;;5.35;4.28;;;2.10;99.90;;;;;;5051786;28;20277;-79
2021/01/18 00:25:53;;;;;;;6.38;5.28;;;2.00;99.90;;;;;;5051988;28;20219;-79
2021/01/18 00:28:20;;;;;;;7.30;5.15;;;2.10;99.90;;;;;;5050339;28;20235;-79
2021/01/18 00:30:46;;;;;;;7.70;5.78;;;2.10;99.90;;;;;;5051358;28;20203;-79
2021/01/18 00:33:12;;;;;;;6.63;5.68;;;2.10;99.90;;;;;;5052650;28;20214;-79
2021/01/18 00:35:39;;;;;;;8.20;5.47;;;2.20;99.90;;;;;;5051769;28;20192;-79
2021/01/18 00:38:06;;;;;;;10.20;5.82;;;2.20;99.90;;;;;;5051820;28;20653;-79
2021/01/18 00:40:32;;;;;;;18.60;11.95;;;2.20;99.90;;;;;;5051490;28;20669;-79
2021/01/18 00:42:59;;;;;;;12.90;6.95;;;2.20;99.90;;;;;;5052172;28;20231;-80
2021/01/18 00:45:25;;;;;;;11.32;8.05;;;2.20;99.90;;;;;;5051566;28;20635;-79
2021/01/18 00:47:53;;;;;;;9.70;7.22;;;2.20;99.90;;;;;;5051791;28;20200;-79
2021/01/18 00:50:20;;;;;;;7.40;5.30;;;2.20;99.90;;;;;;5051708;28;20231;-79
2021/01/18 00:52:48;;;;;;;7.03;5.00;;;2.20;99.90;;;;;;5051795;28;20665;-79
2021/01/18 00:55:17;;;;;;;6.68;4.80;;;2.10;99.90;;;;;;5052059;28;20224;-79
2021/01/18 00:57:44;;;;;;;6.13;4.45;;;1.90;99.90;;;;;;5050862;28;20200;-79
2021/01/18 01:00:14;;;;;;;5.72;4.00;;;1.90;99.90;;;;;;5052146;28;20231;-79
2021/01/18 01:02:41;;;;;;;8.93;5.13;;;1.90;99.90;;;;;;5051468;28;20759;-79
2021/01/18 01:05:10;;;;;;;7.10;4.70;;;2.10;99.90;;;;;;5051686;28;20251;-79
2021/01/18 01:07:37;;;;;;;6.72;4.47;;;2.10;99.90;;;;;;5051010;28;20297;-79
2021/01/18 01:10:05;;;;;;;5.75;4.10;;;2.00;99.90;;;;;;5049994;28;20261;-79
2021/01/18 01:12:33;;;;;;;6.70;4.70;;;2.00;99.90;;;;;;5051931;28;20262;-79
2021/01/18 01:14:59;;;;;;;11.52;7.80;;;2.00;99.90;;;;;;5052169;28;20653;-79
2021/01/18 01:17:26;;;;;;;14.43;8.98;;;1.90;99.90;;;;;;5051832;28;20243;-79
2021/01/18 01:19:52;;;;;;;8.45;4.20;;;2.00;99.90;;;;;;5052089;28;20199;-79
2021/01/18 01:22:19;;;;;;;7.95;5.40;;;2.00;99.90;;;;;;5052353;28;20238;-79
2021/01/18 01:24:45;;;;;;;10.65;7.10;;;2.10;99.90;;;;;;5051326;28;20308;-79
2021/01/18 01:27:12;;;;;;;14.38;7.63;;;2.10;99.90;;;;;;5051052;28;20204;-79
2021/01/18 01:29:39;;;;;;;6.07;4.82;;;2.20;99.90;;;;;;5051167;28;20297;-79
2021/01/18 01:32:06;;;;;;;7.13;4.60;;;2.20;99.90;;;;;;5052077;28;20249;-80
2021/01/18 01:34:33;;;;;;;5.85;4.70;;;2.10;99.90;;;;;;5052169;28;20235;-79
2021/01/18 01:37:00;;;;;;;6.28;4.78;;;2.20;99.90;;;;;;5051233;28;20200;-79
2021/01/18 01:39:26;;;;;;;5.30;4.35;;;2.30;99.90;;;;;;5051328;28;20223;-79
2021/01/18 01:41:53;;;;;;;5.93;5.05;;;2.20;99.90;;;;;;5051221;28;20262;-79
2021/01/18 01:44:19;;;;;;;4.60;4.10;;;2.00;99.90;;;;;;5051124;28;20216;-79
2021/01/18 01:46:47;;;;;;;5.13;4.63;;;2.20;99.90;;;;;;5051146;28;20208;-79
2021/01/18 01:49:14;;;;;;;8.18;5.05;;;2.10;99.90;;;;;;5050414;28;20614;-79
2021/01/18 01:51:41;;;;;;;6.55;4.28;;;2.20;99.90;;;;;;5051592;28;20219;-79
2021/01/18 01:54:09;;;;;;;3.83;3.45;;;2.10;99.90;;;;;;5051115;28;20246;-80
2021/01/18 01:56:35;;;;;;;5.05;3.63;;;2.20;99.90;;;;;;5051908;28;20216;-79
2021/01/18 01:59:03;;;;;;;5.93;4.28;;;2.40;99.90;;;;;;5051625;28;20215;-79
2021/01/18 02:01:30;;;;;;;5.20;4.63;;;2.20;99.90;;;;;;5051738;28;20206;-79
2021/01/18 02:03:59;;;;;;;8.00;5.13;;;2.20;99.90;;;;;;5052239;28;20632;-79
2021/01/18 02:06:28;;;;;;;5.50;4.13;;;2.20;99.90;;;;;;5048438;28;20532;-79
2021/01/18 02:08:57;;;;;;;5.95;4.13;;;2.20;99.90;;;;;;5048081;28;20681;-79
2021/01/18 02:11:26;;;;;;;4.15;3.53;;;2.30;99.90;;;;;;5048801;28;20204;-79
2021/01/18 02:14:27;;;;;;;5.00;3.53;;;2.30;99.90;;;;;;5049240;28;20204;-79
2021/01/18 02:17:03;;;;;;;5.70;4.72;;;2.50;99.90;;;;;;5012550;28;20257;-79
2021/01/18 02:20:30;;;;;;;5.10;4.18;;;2.50;99.90;;;;;;5051157;28;20253;-79
2021/01/18 02:23:28;;;;;;;5.30;3.97;;;2.50;99.90;;;;;;5031339;28;20214;-79
2021/01/18 02:26:01;;;;;;;4.53;4.05;;;2.50;99.90;;;;;;5041701;28;20235;-79
2021/01/18 02:28:52;;;;;;;5.95;4.75;;;2.60;99.90;;;;;;5048660;28;20207;-79
2021/01/18 02:31:42;;;;;;;6.60;5.10;;;2.50;99.90;;;;;;5051231;28;20673;-79
2021/01/18 02:34:46;;;;;;;5.65;4.57;;;2.30;99.90;;;;;;5051348;28;20261;-79
2021/01/18 02:37:37;;;;;;;4.57;4.18;;;2.40;99.90;;;;;;5030411;28;20298;-79
2021/01/18 02:40:11;;;;;;;4.78;4.22;;;2.50;99.90;;;;;;5036252;28;20231;-78
2021/01/18 02:42:46;;;;;;;6.18;4.47;;;2.50;99.90;;;;;;5051001;28;20199;-79
2021/01/18 02:45:16;;;;;;;5.63;4.90;;;2.30;99.90;;;;;;5050869;28;20538;-79
2021/01/18 02:47:45;;;;;;;5.75;5.03;;;2.30;99.90;;;;;;5050348;28;20574;-79
2021/01/18 02:50:13;;;;;;;7.30;5.43;;;2.30;99.90;;;;;;5050755;28;20216;-79
2021/01/18 02:52:44;;;;;;;6.18;4.68;;;2.30;99.90;;;;;;5050722;28;20230;-79
2021/01/18 02:55:16;;;;;;;4.43;4.03;;;2.40;99.90;;;;;;5059266;28;20196;-79
2021/01/18 02:57:48;;;;;;;7.97;5.13;;;2.40;99.90;;;;;;5050320;28;20213;-79
2021/01/18 03:00:21;;;;;;;6.07;4.75;;;2.30;99.90;;;;;;5051248;28;20342;-79
2021/01/18 03:03:00;;;;;;;6.15;4.53;;;2.30;99.90;;;;;;5054814;28;20208;-79
2021/01/18 03:05:37;;;;;;;5.88;4.70;;;2.30;99.90;;;;;;5054790;28;20220;-79
2021/01/18 03:08:15;;;;;;;5.22;4.63;;;2.30;99.90;;;;;;5052988;28;20215;-79
2021/01/18 03:10:46;;;;;;;7.35;4.60;;;2.40;99.90;;;;;;5054794;28;20203;-79
2021/01/18 03:13:19;;;;;;;6.07;4.90;;;2.40;99.90;;;;;;5055190;28;20265;-79
2021/01/18 03:15:47;;;;;;;6.65;5.70;;;2.30;99.90;;;;;;5055287;28;20199;-78
2021/01/18 03:18:18;;;;;;;6.90;5.47;;;2.20;99.90;;;;;;5055111;28;20211;-79
2021/01/18 03:20:46;;;;;;;9.15;6.20;;;2.10;99.90;;;;;;5055449;28;20196;-78
2021/01/18 03:23:13;;;;;;;8.02;5.47;;;2.10;99.90;;;;;;5055578;28;20212;-79
2021/01/18 03:25:50;;;;;;;7.90;5.63;;;2.10;99.90;;;;;;5054679;28;20207;-79
2021/01/18 03:28:18;;;;;;;6.10;5.50;;;2.10;99.90;;;;;;5055129;28;20235;-78
2021/01/18 03:30:44;;;;;;;10.38;7.45;;;2.10;99.90;;;;;;5052676;28;20254;-78
2021/01/18 03:33:11;;;;;;;7.65;5.75;;;2.10;99.90;;;;;;5055108;28;20204;-78
2021/01/18 03:35:38;;;;;;;12.07;7.90;;;2.10;99.90;;;;;;5053669;28;20676;-78
2021/01/18 03:38:04;;;;;;;8.43;5.95;;;2.10;99.90;;;;;;5054334;28;20277;-79
2021/01/18 03:40:32;;;;;;;6.88;5.60;;;2.10;99.90;;;;;;5054466;28;20249;-78
2021/01/18 03:43:00;;;;;;;9.50;6.45;;;2.00;99.90;;;;;;5055597;28;20212;-78
2021/01/18 03:45:29;;;;;;;8.05;6.20;;;2.00;99.90;;;;;;5054580;28;20235;-78
2021/01/18 03:47:55;;;;;;;8.65;5.72;;;2.00;99.90;;;;;;5053965;28;20204;-78
2021/01/18 03:50:22;;;;;;;7.60;6.30;;;2.00;99.90;;;;;;5055453;28;20200;-78
2021/01/18 03:52:49;;;;;;;8.65;6.45;;;2.10;99.90;;;;;;5054576;28;20199;-78
2021/01/18 03:55:17;;;;;;;13.65;7.00;;;2.10;99.90;;;;;;5053379;28;20357;-78
2021/01/18 03:57:47;;;;;;;10.68;6.85;;;2.00;99.90;;;;;;5052979;28;20548;-78
2021/01/18 04:00:15;;;;;;;9.50;6.90;;;2.00;99.90;;;;;;5053509;28;20256;-79
2021/01/18 04:02:41;;;;;;;10.02;6.40;;;2.10;99.90;;;;;;5053780;28;20212;-78
2021/01/18 04:05:09;;;;;;;8.70;6.68;;;2.00;99.90;;;;;;5053437;28;20247;-78
2021/01/18 04:07:35;;;;;;;11.10;7.50;;;2.00;99.90;;;;;;5052964;28;20742;-79
2021/01/18 04:10:02;;;;;;;13.43;8.40;;;2.00;99.90;;;;;;5052962;28;20286;-78
2021/01/18 04:12:29;;;;;;;9.48;6.68;;;1.90;99.90;;;;;;5053430;28;20282;-78
2021/01/18 04:14:56;;;;;;;11.27;6.97;;;1.90;99.90;;;;;;5053463;28;20222;-78
2021/01/18 04:17:23;;;;;;;12.60;8.52;;;2.10;99.90;;;;;;5053165;28;20196;-78
2021/01/18 04:19:49;;;;;;;13.45;7.68;;;2.20;99.90;;;;;;5054040;28;20208;-78
2021/01/18 04:22:16;;;;;;;8.68;7.25;;;2.20;99.90;;;;;;5053756;28;20684;-78
2021/01/18 04:24:42;;;;;;;11.57;7.47;;;2.10;99.90;;;;;;5053775;28;20211;-78
2021/01/18 04:27:09;;;;;;;12.73;7.95;;;2.00;99.90;;;;;;5052878;28;20199;-78
2021/01/18 04:29:35;;;;;;;8.70;7.07;;;2.10;99.90;;;;;;5053644;28;20250;-78
2021/01/18 04:32:03;;;;;;;16.58;8.88;;;2.20;99.90;;;;;;5053138;28;20235;-78
2021/01/18 04:34:30;;;;;;;10.50;7.63;;;2.10;99.90;;;;;;5052595;28;20200;-78
2021/01/18 04:36:56;;;;;;;9.95;7.60;;;2.10;99.90;;;;;;5052963;28;20232;-78
2021/01/18 04:39:23;;;;;;;9.65;7.13;;;2.10;99.90;;;;;;5053888;28;20557;-78
2021/01/18 04:41:49;;;;;;;10.57;6.90;;;2.00;99.90;;;;;;5053163;28;20235;-78
2021/01/18 04:44:17;;;;;;;12.25;7.07;;;2.10;99.90;;;;;;5053343;28;20665;-78
2021/01/18 04:46:45;;;;;;;15.77;7.28;;;1.90;99.90;;;;;;5053423;28;20229;-78
2021/01/18 04:49:15;;;;;;;9.85;7.25;;;1.80;99.90;;;;;;5052824;28;20269;-78
2021/01/18 04:51:44;;;;;;;9.02;7.20;;;1.70;99.90;;;;;;5053566;28;20232;-78
2021/01/18 04:54:14;;;;;;;13.07;6.88;;;1.70;99.90;;;;;;5053924;28;20211;-78
2021/01/18 04:57:12;;;;;;;10.15;6.50;;;1.70;99.90;;;;;;5053297;28;20207;-79
2021/01/18 04:59:43;;;;;;;9.88;6.95;;;1.90;99.90;;;;;;4991641;28;20224;-78
2021/01/18 05:02:14;;;;;;;9.15;6.57;;;1.90;99.90;;;;;;5041462;28;20678;-78
2021/01/18 05:04:43;;;;;;;8.40;6.25;;;1.90;99.90;;;;;;5053604;28;20694;-78
2021/01/18 05:07:46;;;;;;;11.30;6.50;;;1.90;99.90;;;;;;5053028;28;20212;-78
2021/01/18 05:10:14;;;;;;;9.68;7.43;;;1.90;99.90;;;;;;5039566;28;20207;-78
2021/01/18 05:12:42;;;;;;;12.98;7.20;;;1.70;99.90;;;;;;5053762;28;20893;-79
2021/01/18 05:15:11;;;;;;;10.30;7.50;;;1.70;99.90;;;;;;5037811;28;20241;-79
2021/01/18 05:17:42;;;;;;;11.98;6.70;;;1.90;99.90;;;;;;5052317;28;20771;-79
2021/01/18 05:20:11;;;;;;;10.05;6.45;;;1.80;99.90;;;;;;5053348;28;20192;-79
2021/01/18 05:22:42;;;;;;;8.80;6.05;;;1.70;99.90;;;;;;5052796;28;20239;-79
2021/01/18 05:25:09;;;;;;;8.48;6.00;;;1.60;99.90;;;;;;5053697;28;20220;-78
2021/01/18 05:27:57;;;;;;;7.97;6.22;;;1.60;99.90;;;;;;5052824;28;20231;-78
2021/01/18 05:30:24;;;;;;;9.65;6.20;;;1.80;99.90;;;;;;5053643;28;20712;-78
2021/01/18 05:33:01;;;;;;;6.32;5.35;;;1.90;99.90;;;;;;5053404;28;20204;-80
2021/01/18 05:35:28;;;;;;;8.75;6.40;;;1.90;99.90;;;;;;5052301;28;20242;-80
2021/01/18 05:37:59;;;;;;;8.48;7.05;;;1.90;99.90;;;;;;5052992;28;20200;-80
2021/01/18 05:40:27;;;;;;;8.48;5.55;;;2.00;99.90;;;;;;5052549;28;20196;-80
2021/01/18 05:42:54;;;;;;;9.85;6.45;;;2.00;99.90;;;;;;5052454;28;20219;-80
2021/01/18 05:45:31;;;;;;;8.65;6.82;;;2.10;99.90;;;;;;5051931;28;20220;-80
2021/01/18 05:47:58;;;;;;;9.13;5.85;;;2.00;99.90;;;;;;5052275;28;20203;-80
2021/01/18 05:50:26;;;;;;;13.13;7.45;;;1.90;99.90;;;;;;5052486;28;20270;-80
2021/01/18 05:52:53;;;;;;;7.28;6.57;;;1.90;99.90;;;;;;5052250;28;20576;-80
2021/01/18 05:55:21;;;;;;;12.32;6.82;;;1.80;99.90;;;;;;5052027;28;20246;-80
2021/01/18 05:57:49;;;;;;;8.38;6.30;;;1.80;99.90;;;;;;5050359;28;20211;-80
2021/01/18 06:00:25;;;;;;;8.05;6.60;;;1.70;99.90;;;;;;5052064;28;20215;-80
2021/01/18 06:02:52;;;;;;;8.55;6.50;;;1.70;99.90;;;;;;5051758;28;20626;-81
2021/01/18 06:05:28;;;;;;;7.05;6.35;;;1.80;99.90;;;;;;5070050;28;20227;-80
2021/01/18 06:08:07;;;;;;;11.02;7.75;;;1.90;99.90;;;;;;5056948;28;20210;-80
2021/01/18 06:10:34;;;;;;;9.55;7.63;;;2.00;99.90;;;;;;5050918;28;20214;-81
2021/01/18 06:13:00;;;;;;;9.90;7.90;;;2.00;99.90;;;;;;5052385;28;20571;-81
2021/01/18 06:15:27;;;;;;;12.43;8.07;;;2.10;99.90;;;;;;5052142;28;20200;-81
2021/01/18 06:17:56;;;;;;;10.48;8.32;;;2.10;99.90;;;;;;5051917;28;20212;-80
2021/01/18 06:20:24;;;;;;;12.02;8.02;;;2.20;99.90;;;;;;5046432;28;20238;-81
2021/01/18 06:22:52;;;;;;;13.05;7.60;;;2.20;99.90;;;;;;5051949;28;20200;-80
2021/01/18 06:25:21;;;;;;;10.52;8.93;;;2.10;99.90;;;;;;5050298;28;20223;-81
2021/01/18 06:27:47;;;;;;;13.82;7.70;;;2.00;99.90;;;;;;5051756;28;20204;-81
2021/01/18 06:30:22;;;;;;;10.57;7.13;;;2.00;99.90;;;;;;5052290;28;20235;-81
2021/01/18 06:32:54;;;;;;;10.38;7.75;;;2.00;99.90;;;;;;5052125;28;20207;-80
2021/01/18 06:35:26;;;;;;;9.27;7.72;;;2.00;99.90;;;;;;5051161;28;20207;-80
2021/01/18 06:38:00;;;;;;;12.32;7.65;;;1.90;99.90;;;;;;5044704;28;20210;-81
2021/01/18 06:40:34;;;;;;;10.15;6.70;;;2.00;99.90;;;;;;5052149;28;20572;-80
2021/01/18 06:43:01;;;;;;;11.65;6.93;;;1.90;99.90;;;;;;5051915;28;20250;-80
2021/01/18 06:45:38;;;;;;;12.82;7.20;;;1.90;99.90;;;;;;5047273;28;20239;-81
2021/01/18 06:48:06;;;;;;;9.98;6.95;;;2.00;99.90;;;;;;5051280;28;20455;-80
2021/01/18 06:50:34;;;;;;;10.00;6.53;;;1.90;99.90;;;;;;5051537;28;20212;-81
2021/01/18 06:53:18;;;;;;;11.35;6.30;;;2.00;99.90;;;;;;5048239;28;20208;-80
2021/01/18 06:56:25;;;;;;;7.40;6.35;;;2.00;99.90;;;;;;5042515;28;20199;-80
2021/01/18 06:59:00;;;;;;;9.23;6.65;;;1.90;99.90;;;;;;5049721;28;20525;-80
2021/01/18 07:01:29;;;;;;;6.50;5.45;;;1.90;99.90;;;;;;5051866;28;20218;-80
2021/01/18 07:04:04;;;;;;;10.23;6.28;;;1.70;99.90;;;;;;5051562;28;20287;-81
2021/01/18 07:06:32;;;;;;;9.50;6.25;;;1.80;99.90;;;;;;5051067;28;20254;-82
2021/01/18 07:09:00;;;;;;;6.38;5.43;;;1.80;99.90;;;;;;5050626;28;20212;-82
2021/01/18 07:11:28;;;;;;;9.70;5.80;;;1.90;99.90;;;;;;5050690;28;20211;-81
2021/01/18 07:13:55;;;;;;;6.45;5.65;;;1.90;99.90;;;;;;5052982;28;20600;-82
2021/01/18 07:16:26;;;;;;;9.80;5.53;;;1.90;99.90;;;;;;5050770;28;20200;-81
2021/01/18 07:18:56;;;;;;;10.80;5.30;;;2.00;99.90;;;;;;5052190;28;20211;-82
2021/01/18 07:21:26;;;;;;;8.20;5.25;;;2.10;99.90;;;;;;5052592;28;20747;-81
2021/01/18 07:23:58;;;;;;;7.07;4.78;;;2.00;99.90;;;;;;5052042;28;20218;-82
2021/01/18 07:26:39;;;;;;;5.38;4.20;;;2.20;99.90;;;;;;5053085;28;20216;-81
2021/01/18 07:29:07;;;;;;;8.45;4.70;;;2.00;99.90;;;;;;5052057;28;20200;-82
2021/01/18 07:31:35;;;;;;;8.00;4.63;;;1.90;99.90;;;;;;5052156;28;21017;-81
2021/01/18 07:34:04;;;;;;;7.43;4.85;;;2.00;99.90;;;;;;5051934;28;20224;-82
2021/01/18 07:36:33;;;;;;;8.68;5.80;;;2.10;99.90;;;;;;5052760;28;20219;-82
2021/01/18 07:39:00;;;;;;;7.78;5.10;;;2.20;99.90;;;;;;5051312;28;20212;-82
2021/01/18 07:41:36;;;;;;;6.13;5.03;;;2.10;99.90;;;;;;5052470;28;20257;-81
2021/01/18 07:44:04;;;;;;;5.47;4.70;;;2.00;99.90;;;;;;5052416;28;20715;-82
2021/01/18 07:46:37;;;;;;;6.20;5.07;;;2.10;99.90;;;;;;5053720;28;20228;-81
2021/01/18 07:49:35;;;;;;;5.75;5.25;;;2.10;99.90;;;;;;5055679;28;20731;-81
2021/01/18 07:52:26;;;;;;;8.23;4.18;;;2.20;99.90;;;;;;5022181;28;20216;-81
2021/01/18 07:54:54;;;;;;;7.05;5.13;;;2.30;99.90;;;;;;5056403;28;20255;-82
2021/01/18 07:57:39;;;;;;;10.77;4.50;;;2.20;99.90;;;;;;5055262;28;20203;-81
2021/01/18 08:00:36;;;;;;;7.45;5.47;;;2.20;99.90;;;;;;5042471;28;20231;-82
2021/01/18 08:03:24;;;;;;;6.15;4.30;;;2.30;99.90;;;;;;5051501;28;20211;-81
2021/01/18 08:06:01;;;;;;;5.82;3.72;;;2.10;99.90;;;;;;5056198;28;20634;-82
2021/01/18 08:08:30;;;;;;;5.32;4.82;;;2.20;99.90;;;;;;5055488;28;20669;-82
2021/01/18 08:10:59;;;;;;;4.53;4.10;;;2.20;99.90;;;;;;5055837;28;20216;-83
2021/01/18 08:13:45;;;;;;;11.77;4.88;;;2.00;99.90;;;;;;5055601;28;20578;-83
2021/01/18 08:16:14;;;;;;;5.82;4.13;;;2.00;99.90;;;;;;5056152;28;20224;-82
2021/01/18 08:18:52;;;;;;;5.72;4.05;;;2.10;99.90;;;;;;5056082;28;20291;-82
2021/01/18 08:21:47;;;;;;;4.45;4.00;;;2.30;99.90;;;;;;5055459;28;20258;-81
2021/01/18 08:24:16;;;;;;;6.32;4.43;;;2.50;99.90;;;;;;5055025;28;20245;-81
2021/01/18 08:26:55;;;;;;;6.88;4.70;;;2.60;99.90;;;;;;5055491;28;20228;-82
2021/01/18 08:29:44;;;;;;;5.78;4.28;;;3.00;99.90;;;;;;5035808;28;20216;-81
2021/01/18 08:32:36;;;;;;;6.28;5.13;;;2.80;99.90;;;;;;5035239;28;20621;-81
2021/01/18 08:35:08;;;;;;;5.57;4.80;;;2.70;99.90;;;;;;5051020;28;20275;-81
2021/01/18 08:37:37;;;;;;;8.75;4.72;;;3.00;99.90;;;;;;5056195;28;20215;-81
2021/01/18 08:40:07;;;;;;;20.15;5.90;;;3.20;99.90;;;;;;5054102;28;20859;-81
2021/01/18 08:42:36;;;;;;;5.68;5.07;;;3.30;99.90;;;;;;5054552;28;20207;-81
2021/01/18 08:45:07;;;;;;;6.72;5.07;;;3.50;99.90;;;;;;5053803;28;20716;-81
2021/01/18 08:47:38;;;;;;;12.27;5.47;;;3.50;99.70;;;;;;5054892;28;20215;-81
2021/01/18 08:50:22;;;;;;;10.95;6.18;;;3.50;99.50;;;;;;5054304;28;20257;-81
2021/01/18 08:52:49;;;;;;;10.05;5.20;;;3.30;99.50;;;;;;5054427;28;20208;-80
2021/01/18 08:55:40;;;;;;;8.15;4.60;;;3.30;99.70;;;;;;5054468;28;20204;-81
2021/01/18 08:58:07;;;;;;;9.25;5.65;;;3.40;99.70;;;;;;5047231;28;20200;-81
2021/01/18 09:00:40;;;;;;;8.93;4.80;;;3.50;99.80;;;;;;5054129;28;20207;-81
2021/01/18 09:03:07;;;;;;;9.25;5.30;;;3.50;99.30;;;;;;5054021;28;20200;-80
2021/01/18 09:05:34;;;;;;;5.88;4.90;;;3.30;99.00;;;;;;5053411;28;20253;-81
2021/01/18 09:08:02;;;;;;;8.80;7.47;;;3.30;99.70;;;;;;5054022;28;20208;-81
2021/01/18 09:10:29;;;;;;;12.75;6.40;;;3.50;99.70;;;;;;5053619;28;20227;-81
2021/01/18 09:13:02;;;;;;;7.70;5.10;;;3.50;99.60;;;;;;5058163;28;20215;-81
2021/01/18 09:16:20;;;;;;;8.52;5.18;;;3.50;99.60;;;;;;5056389;28;20231;-80
2021/01/18 09:18:47;;;;;;;7.13;4.10;;;3.70;99.40;;;;;;5039206;28;20316;-80
2021/01/18 09:21:17;;;;;;;5.60;5.05;;;3.60;98.90;;;;;;5052840;28;20200;-81
2021/01/18 09:23:44;;;;;;;7.80;5.47;;;3.70;99.00;;;;;;5053828;28;20219;-81
2021/01/18 09:26:13;;;;;;;6.07;4.72;;;3.90;98.90;;;;;;5053131;28;20212;-81
2021/01/18 09:28:40;;;;;;;8.43;5.97;;;3.60;98.30;;;;;;5053495;28;20227;-81
2021/01/18 09:31:08;;;;;;;6.28;5.57;;;3.70;98.70;;;;;;5053112;28;20196;-80
2021/01/18 09:33:35;;;;;;;7.78;5.25;;;3.70;98.70;;;;;;5053916;28;20217;-80
2021/01/18 09:36:03;;;;;;;8.15;5.90;;;3.70;98.80;;;;;;5052746;28;20200;-81
2021/01/18 09:38:30;;;;;;;11.38;5.00;;;3.70;98.90;;;;;;5053146;28;20222;-81
2021/01/18 09:40:57;;;;;;;6.10;5.03;;;3.90;98.90;;;;;;5052515;28;20200;-81
2021/01/18 09:43:27;;;;;;;10.02;6.32;;;3.60;99.00;;;;;;5053354;28;20564;-80
2021/01/18 09:45:54;;;;;;;7.03;5.18;;;3.50;99.40;;;;;;5053040;28;20220;-80
2021/01/18 09:48:24;;;;;;;8.00;4.75;;;3.40;99.40;;;;;;5053127;28;20266;-80
2021/01/18 09:50:58;;;;;;;5.05;4.05;;;3.60;99.80;;;;;;5052873;28;20200;-80
2021/01/18 09:53:26;;;;;;;6.43;4.63;;;3.50;99.30;;;;;;5052174;28;20208;-81
2021/01/18 09:55:54;;;;;;;5.72;4.47;;;3.40;99.30;;;;;;5053147;28;20295;-80
2021/01/18 09:58:29;;;;;;;4.75;4.35;;;3.40;99.70;;;;;;5051125;28;20204;-79
2021/01/18 10:00:58;;;;;;;17.73;12.63;;;3.50;99.90;;;;;;5053083;28;20203;-81
2021/01/18 10:03:30;;;;;;;13.35;8.23;;;3.40;99.60;;;;;;5052450;28;20207;-80
2021/01/18 10:06:08;;;;;;;6.72;4.57;;;3.60;99.90;;;;;;5053133;28;20286;-80
2021/01/18 10:08:37;;;;;;;8.85;6.13;;;3.80;99.90;;;;;;5052253;28;20211;-80
2021/01/18 10:11:04;;;;;;;12.32;8.98;;;3.70;99.30;;;;;;5051285;28;20208;-80
2021/01/18 10:13:31;;;;;;;9.45;8.05;;;3.80;99.50;;;;;;5050719;28;20202;-80
2021/01/18 10:16:07;;;;;;;5.10;4.53;;;4.00;99.20;;;;;;5050803;28;20556;-80
2021/01/18 10:18:35;;;;;;;25.40;18.95;;;4.00;98.80;;;;;;5051241;28;20207;-81
2021/01/18 10:21:02;;;;;;;17.80;12.18;;;3.90;98.30;;;;;;5051291;28;20224;-81
2021/01/18 10:23:33;;;;;;;21.17;14.85;;;4.10;98.70;;;;;;5051342;28;20250;-80
2021/01/18 10:26:21;;;;;;;6.72;5.95;;;4.30;98.60;;;;;;5050389;28;20230;-81
2021/01/18 10:28:53;;;;;;;5.90;5.38;;;4.40;98.10;;;;;;5049771;28;20215;-81
2021/01/18 10:31:20;;;;;;;14.18;12.15;;;4.60;98.10;;;;;;5050164;28;20207;-81
2021/01/18 10:34:12;;;;;;;6.72;4.85;;;4.50;97.70;;;;;;5050851;28;20203;-81
2021/01/18 10:36:41;;;;;;;4.45;3.75;;;4.80;98.00;;;;;;5050504;28;20203;-81
2021/01/18 10:39:08;;;;;;;6.35;4.82;;;4.90;97.50;;;;;;5048752;28;20227;-81
2021/01/18 10:41:37;;;;;;;6.60;3.47;;;4.90;96.80;;;;;;5048880;28;20279;-81
2021/01/18 10:44:06;;;;;;;5.75;4.40;;;5.10;97.00;;;;;;5049227;28;20870;-81
2021/01/18 10:46:33;;;;;;;4.18;3.65;;;4.90;96.60;;;;;;5049078;28;20233;-81
2021/01/18 10:49:00;;;;;;;4.53;3.67;;;4.90;96.50;;;;;;5050012;28;20200;-81
2021/01/18 10:51:28;;;;;;;9.30;4.85;;;4.80;96.90;;;;;;5049662;28;20203;-81
2021/01/18 10:53:58;;;;;;;4.65;4.13;;;5.10;97.00;;;;;;5050659;28;20241;-80
2021/01/18 10:56:31;;;;;;;4.60;4.20;;;5.30;96.80;;;;;;5050155;28;20290;-81
2021/01/18 10:59:00;;;;;;;5.75;4.20;;;5.40;96.10;;;;;;5050019;28;20617;-82
2021/01/18 11:01:29;;;;;;;5.70;4.70;;;5.50;96.10;;;;;;5050550;28;20249;-81
2021/01/18 11:04:03;;;;;;;5.40;4.65;;;5.70;95.90;;;;;;5050679;28;20254;-80
2021/01/18 11:06:35;;;;;;;4.25;3.38;;;5.30;95.30;;;;;;5050383;28;20227;-81
2021/01/18 11:09:01;;;;;;;5.50;4.35;;;5.30;95.90;;;;;;5050272;28;20269;-81
2021/01/18 11:11:29;;;;;;;4.90;3.33;;;5.60;96.20;;;;;;5047645;28;20592;-81
2021/01/18 11:14:04;;;;;;;3.90;3.50;;;5.80;95.60;;;;;;5048497;28;20226;-81
2021/01/18 11:16:30;;;;;;;4.68;4.28;;;5.80;95.50;;;;;;5048610;28;20214;-81
2021/01/18 11:19:01;;;;;;;6.50;4.70;;;5.40;94.80;;;;;;5048735;28;20204;-81
2021/01/18 11:21:30;;;;;;;5.60;4.68;;;5.50;95.50;;;;;;5050666;28;20200;-81
2021/01/18 11:23:56;;;;;;;4.80;4.40;;;5.20;95.20;;;;;;5053390;28;20200;-80
2021/01/18 11:26:23;;;;;;;6.43;4.25;;;5.00;95.90;;;;;;5051441;28;20590;-81
2021/01/18 11:28:50;;;;;;;6.70;4.68;;;4.60;95.30;;;;;;5053603;28;20943;-81
2021/01/18 11:31:18;;;;;;;5.20;4.38;;;4.60;96.30;;;;;;5053235;28;20200;-81
2021/01/18 11:33:45;;;;;;;6.35;5.68;;;4.80;96.20;;;;;;5053998;28;20215;-81
2021/01/18 11:36:11;;;;;;;5.40;4.57;;;4.80;96.30;;;;;;5053386;28;20196;-81
2021/01/18 11:38:38;;;;;;;5.32;4.40;;;4.90;96.30;;;;;;5052729;28;20231;-81
2021/01/18 11:41:05;;;;;;;5.05;4.55;;;4.80;96.40;;;;;;5049390;28;20196;-80
2021/01/18 11:43:32;;;;;;;4.75;3.80;;;4.80;96.10;;;;;;5053822;28;20230;-81
2021/01/18 11:45:59;;;;;;;6.40;4.57;;;4.90;96.50;;;;;;5054363;28;20269;-81
2021/01/18 11:48:26;;;;;;;5.38;3.90;;;5.10;96.00;;;;;;5053389;28;20208;-81
2021/01/18 11:50:53;;;;;;;4.93;4.50;;;5.10;95.70;;;;;;5053635;28;20265;-81
2021/01/18 11:53:19;;;;;;;6.47;4.70;;;5.10;96.00;;;;;;5053427;28;20527;-81
2021/01/18 11:55:47;;;;;;;6.80;4.13;;;4.90;96.00;;;;;;5053086;28;20196;-81
2021/01/18 11:58:14;;;;;;;5.35;4.68;;;4.80;96.20;;;;;;5051728;28;20200;-80
2021/01/18 12:00:42;;;;;;;9.55;4.25;;;4.90;96.40;;;;;;5051373;28;20277;-81
2021/01/18 12:03:08;;;;;;;6.75;5.60;;;4.90;96.20;;;;;;5053829;28;20215;-82
2021/01/18 12:05:38;;;;;;;8.93;5.93;;;4.80;95.80;;;;;;5053394;28;20248;-81
2021/01/18 12:08:06;;;;;;;6.10;5.60;;;4.60;96.70;;;;;;5053624;28;20204;-81
2021/01/18 12:10:34;;;;;;;4.80;4.30;;;4.60;97.10;;;;;;5052158;28;20688;-81
2021/01/18 12:13:05;;;;;;;4.13;3.80;;;4.70;96.50;;;;;;5053191;28;20195;-82
2021/01/18 12:15:35;;;;;;;8.65;5.88;;;5.10;97.00;;;;;;5052852;28;20193;-82
2021/01/18 12:18:05;;;;;;;4.55;4.15;;;4.90;95.90;;;;;;5055776;28;20732;-81
2021/01/18 12:20:31;;;;;;;10.05;8.02;;;4.80;96.20;;;;;;5060763;28;20291;-81
2021/01/18 12:22:58;;;;;;;7.70;5.55;;;4.70;96.40;;;;;;5069673;28;20210;-82
2021/01/18 12:25:26;;;;;;;4.78;4.38;;;4.80;96.40;;;;;;5052727;28;20284;-82
2021/01/18 12:27:54;;;;;;;15.00;10.25;;;5.10;96.60;;;;;;5052442;28;20222;-81
2021/01/18 12:30:22;;;;;;;13.13;11.82;;;5.10;96.60;;;;;;5052455;28;20211;-81
2021/01/18 12:32:49;;;;;;;8.88;7.47;;;4.80;95.90;;;;;;5052175;28;20559;-81
2021/01/18 12:35:16;;;;;;;17.77;16.15;;;4.90;96.30;;;;;;5052590;28;20257;-81
2021/01/18 12:37:42;;;;;;;38.13;31.25;;;5.10;96.10;;;;;;5051694;28;20191;-82
2021/01/18 12:40:12;;;;;;;12.50;11.25;;;5.00;95.40;;;;;;5052414;28;20199;-81
2021/01/18 12:42:42;;;;;;;8.63;4.43;;;4.70;95.80;;;;;;5050951;28;20220;-81
2021/01/18 12:45:10;;;;;;;5.03;4.50;;;4.50;96.00;;;;;;5051956;28;20204;-80
2021/01/18 12:47:39;;;;;;;21.58;19.35;;;4.50;96.70;;;;;;5052052;28;20203;-80
2021/01/18 12:50:07;;;;;;;44.88;40.08;;;4.90;96.80;;;;;;5052929;28;20196;-81
2021/01/18 12:52:35;;;;;;;19.55;17.33;;;4.50;96.30;;;;;;5053406;28;20866;-80
2021/01/18 12:55:01;;;;;;;6.85;5.22;;;4.50;96.80;;;;;;5053041;28;20196;-81
2021/01/18 12:57:28;;;;;;;21.00;18.42;;;4.40;96.60;;;;;;5052510;28;20200;-81
2021/01/18 12:59:55;;;;;;;15.75;14.27;;;4.40;96.80;;;;;;5052437;28;20653;-80
2021/01/18 13:02:21;;;;;;;8.07;5.30;;;4.40;96.60;;;;;;5052680;28;20215;-80
2021/01/18 13:04:49;;;;;;;21.60;18.73;;;4.50;96.60;;;;;;5051986;28;20192;-81
2021/01/18 13:07:16;;;;;;;14.50;12.40;;;4.50;96.80;;;;;;5031969;28;20232;-80
2021/01/18 13:09:43;;;;;;;7.88;5.65;;;4.60;96.80;;;;;;5036611;28;20223;-80
2021/01/18 13:12:10;;;;;;;9.98;5.10;;;4.40;96.70;;;;;;5053049;28;20302;-80